Pisgah Forest, NC (28768)

09:08 PM EDT del 04 Settembre 2015 (GMT -0400)
Pisgah Center Self Storage | | Change Station
CLOSE
Current Station
Stazione meteo personale
Location: Pisgah Forest, NC
Altitudine: 2159 ft
Stazioni meteo nelle vicinanze

Alt. 2159 ft 35.27 °N, 82.70 °W | Updated 1 minute ago

Parzialmente nuvoloso
Parzialmente nuvoloso
67.8 °F
Sembra 67.8 °F
N
2.2
Vento Variabile Vento da NO

Oggi
Massima -- | Minima -- °F
--% Possibilità di precip.
Ieri
Massima -- | Minima -- °F
Precip. -- in
7:05 AM 7:53 PM
Gobba a levante, 54% visible
Pressione 30.06 in
Visibilità 10.0 miglia
Nuvole Sereno
Punto di rugiada 66 °F
Umidità 93%
Piovosità 0.00 in
Spessore del manto nevoso Non disponibile.
Raggi UV 0 fuori da 12
Polline 8.80 fuori da 12
Qualità dell'aria Non disponibile.
Flu Activity Non disponibile.
METAR KAVL 050054Z 34006KT 10SM CLR 22/17 A3013 RMK AO2 SLP180 T02170167
Pressione 30.06 in
Visibilità 10.0 miglia
Nuvole Sereno
Punto di rugiada 66 °F
Umidità 93%
Piovosità 0.00 in
Spessore del manto nevoso Non disponibile.
Raggi UV 0 fuori da 12
Polline 8.80 fuori da 12
Qualità dell'aria Non disponibile.
Flu Activity Non disponibile.
METAR KAVL 050054Z 34006KT 10SM CLR 22/17 A3013 RMK AO2 SLP180 T02170167

10-Day Weather Forecast

×

Almanac

Astronomia

Sep. 04, 2015 Alba Tramonto
Ora attuale
Crepuscolo civile
Crepuscolo nautico
Crepuscolo astronomico
Luna
Estensione della luce visibile
Lunghezza del giorno
Tomorrow will be .
, % of the Moon is Illuminated

Gli estremi di oggi

State Highs State Lows

Community

WunderPhotos

Upload Photos

1,852,367 foto caricate!

WunderBlogs® & News

Nearby

Qualità dell'aria

  Qualità dell'aria Indice AQ Inquinante
Not available.

Profondità neve

Stazione Profondità Altitudine

Attività sismica

Città  Distanza Mag. Data & Ora
Minimo Magnitudo Mostrato è 2.5.

Temperature delle acque costiere

Località Temperatura

Stations

Stazioni meteo nelle vicinanze

Ubicazione della stazione Temp. Raffreddamento del vento Punto di rugiada Umidità Vento Precip. Alt. Aggiornato Tipo